createdAt,value
2017-12-21T00:00:27.658Z,11.07
2017-12-21T00:02:55.170Z,11.63
2017-12-21T00:05:22.681Z,10.25
2017-12-21T00:07:50.234Z,10.65
2017-12-21T00:10:17.739Z,12.10
2017-12-21T00:12:45.249Z,12.43
2017-12-21T00:15:13.114Z,11.40
2017-12-21T00:17:40.675Z,10.55
2017-12-21T00:20:08.233Z,11.15
2017-12-21T00:22:41.218Z,10.70
2017-12-21T00:25:08.730Z,10.10
2017-12-21T00:27:36.234Z,11.38
2017-12-21T00:30:03.778Z,9.60
2017-12-21T00:32:31.291Z,10.95
2017-12-21T00:34:58.799Z,9.98
2017-12-21T00:37:26.680Z,10.80
2017-12-21T00:39:54.180Z,11.18
2017-12-21T00:42:21.690Z,11.02
2017-12-21T00:44:49.250Z,10.60
2017-12-21T00:47:16.760Z,10.73
2017-12-21T00:49:45.730Z,10.90
2017-12-21T00:52:13.433Z,10.30
2017-12-21T00:54:40.953Z,10.55
2017-12-21T00:57:08.479Z,11.65
2017-12-21T00:59:36.039Z,12.05
2017-12-21T01:02:03.552Z,12.40
2017-12-21T01:04:31.065Z,11.95
2017-12-21T01:06:58.614Z,11.52
2017-12-21T01:09:26.168Z,10.65
2017-12-21T01:11:53.677Z,12.95
2017-12-21T01:14:21.378Z,12.68
2017-12-21T01:16:48.885Z,13.80
2017-12-21T01:19:16.434Z,11.65
2017-12-21T01:21:44.173Z,12.27
2017-12-21T01:24:11.676Z,13.50
2017-12-21T01:26:39.197Z,14.80
2017-12-21T01:29:06.759Z,14.70
2017-12-21T01:31:34.306Z,15.68
2017-12-21T01:34:01.826Z,14.25
2017-12-21T01:36:29.607Z,17.25
2017-12-21T01:38:57.114Z,17.12
2017-12-21T01:41:24.646Z,15.88
2017-12-21T01:43:52.545Z,14.85
2017-12-21T01:46:20.088Z,16.20
2017-12-21T01:48:47.628Z,18.12
2017-12-21T01:51:15.189Z,17.60
2017-12-21T01:53:42.697Z,17.35
2017-12-21T01:56:10.230Z,18.48
2017-12-21T01:58:37.790Z,19.20
2017-12-21T02:01:05.323Z,17.75
2017-12-21T02:03:32.834Z,16.65
2017-12-21T02:06:00.429Z,15.95
2017-12-21T02:08:27.937Z,14.07
2017-12-21T02:10:55.448Z,15.05
2017-12-21T02:13:23.108Z,15.00
2017-12-21T02:15:50.591Z,13.65
2017-12-21T02:18:18.134Z,15.48
2017-12-21T02:20:45.865Z,15.30
2017-12-21T02:23:13.373Z,14.32
2017-12-21T02:25:40.914Z,16.10
2017-12-21T02:28:08.557Z,15.18
2017-12-21T02:30:37.057Z,13.77
2017-12-21T02:33:04.565Z,15.20
2017-12-21T02:35:32.379Z,17.10
2017-12-21T02:37:59.882Z,17.87
2017-12-21T02:40:28.363Z,15.23
2017-12-21T02:42:55.988Z,18.27
2017-12-21T02:45:23.490Z,18.20
2017-12-21T02:47:51.003Z,16.05
2017-12-21T02:50:18.553Z,15.77
2017-12-21T02:52:46.093Z,17.77
2017-12-21T02:55:13.597Z,16.92
2017-12-21T02:57:41.150Z,15.10
2017-12-21T03:00:08.790Z,15.98
2017-12-21T03:02:36.367Z,14.87
2017-12-21T03:05:04.113Z,15.00
2017-12-21T03:07:31.617Z,14.93
2017-12-21T03:09:59.128Z,15.38
2017-12-21T03:12:26.687Z,14.60
2017-12-21T03:14:54.191Z,14.87
2017-12-21T03:17:21.806Z,16.35
2017-12-21T03:19:49.349Z,15.30
2017-12-21T03:22:16.856Z,14.40
2017-12-21T03:24:44.379Z,14.48
2017-12-21T03:27:12.069Z,14.43
2017-12-21T03:29:39.600Z,16.83
2017-12-21T03:32:07.108Z,11.75
2017-12-21T03:34:34.784Z,12.37
2017-12-21T03:37:02.290Z,12.75
2017-12-21T03:39:29.836Z,10.95
2017-12-21T03:41:57.703Z,14.10
2017-12-21T03:44:25.262Z,14.30
2017-12-21T03:46:52.765Z,13.25
2017-12-21T03:49:20.326Z,12.05
2017-12-21T03:51:47.857Z,11.27
2017-12-21T03:54:15.379Z,12.23
2017-12-21T03:56:43.160Z,11.32
2017-12-21T03:59:10.719Z,14.32
2017-12-21T04:01:38.225Z,13.07
2017-12-21T04:04:05.768Z,12.98
2017-12-21T04:06:33.274Z,14.68
2017-12-21T04:09:00.785Z,12.80
2017-12-21T04:11:28.490Z,13.13
2017-12-21T04:13:56.021Z,12.40
2017-12-21T04:16:23.536Z,13.77
2017-12-21T04:18:51.293Z,11.80
2017-12-21T04:21:18.801Z,12.85
2017-12-21T04:23:46.314Z,11.20
2017-12-21T04:26:13.878Z,11.15
2017-12-21T04:28:41.427Z,11.65
2017-12-21T04:31:08.959Z,11.25
2017-12-21T04:33:36.497Z,13.27
2017-12-21T04:36:04.025Z,11.40
2017-12-21T04:38:31.530Z,12.68
2017-12-21T04:40:59.192Z,12.50
2017-12-21T04:43:26.698Z,12.85
2017-12-21T04:45:54.238Z,13.35
2017-12-21T04:48:22.172Z,11.12
2017-12-21T04:50:49.693Z,11.65
2017-12-21T04:53:17.223Z,10.68
2017-12-21T04:55:44.987Z,11.35
2017-12-21T04:58:12.506Z,12.23
2017-12-21T05:00:40.018Z,12.57
2017-12-21T05:03:07.557Z,11.48
2017-12-21T05:05:35.070Z,11.70
2017-12-21T05:08:02.582Z,11.23
2017-12-21T05:10:30.344Z,12.35
2017-12-21T05:12:57.901Z,12.80
2017-12-21T05:15:25.454Z,10.60
2017-12-21T05:17:53.017Z,10.95
2017-12-21T05:20:20.526Z,11.75
2017-12-21T05:22:48.035Z,10.50
2017-12-21T05:25:15.589Z,12.05
2017-12-21T05:27:43.124Z,11.75
2017-12-21T05:30:10.648Z,10.43
2017-12-21T05:32:38.313Z,11.73
2017-12-21T05:35:05.832Z,13.25
2017-12-21T05:37:33.389Z,11.30
2017-12-21T05:40:00.947Z,11.02
2017-12-21T05:42:28.510Z,12.48
2017-12-21T05:44:56.018Z,13.18
2017-12-21T05:47:23.626Z,13.55
2017-12-21T05:49:51.158Z,13.18
2017-12-21T05:52:18.669Z,15.07
2017-12-21T05:54:46.249Z,12.60
2017-12-21T05:57:13.778Z,14.55
2017-12-21T05:59:41.317Z,13.75
2017-12-21T06:02:09.158Z,14.55
2017-12-21T06:04:37.481Z,15.50
2017-12-21T06:07:05.019Z,15.50
2017-12-21T06:09:32.577Z,12.15
2017-12-21T06:12:00.650Z,12.68
2017-12-21T06:14:28.164Z,15.63
2017-12-21T06:16:55.734Z,17.73
2017-12-21T06:19:23.247Z,12.65
2017-12-21T06:21:50.764Z,14.68
2017-12-21T06:24:18.458Z,15.50
2017-12-21T06:26:46.004Z,14.73
2017-12-21T06:29:13.564Z,14.38
2017-12-21T06:31:41.145Z,16.17
2017-12-21T06:34:08.659Z,14.95
2017-12-21T06:36:36.169Z,17.67
2017-12-21T06:39:04.720Z,15.73
2017-12-21T06:41:32.240Z,13.68
2017-12-21T06:43:59.750Z,15.40
2017-12-21T06:46:27.501Z,15.32
2017-12-21T06:48:55.064Z,14.32
2017-12-21T06:51:22.618Z,17.05
2017-12-21T06:53:50.598Z,17.85
2017-12-21T06:56:18.142Z,16.00
2017-12-21T06:58:45.662Z,15.57
2017-12-21T07:01:13.466Z,13.23
2017-12-21T07:03:40.976Z,16.58
2017-12-21T07:06:08.503Z,16.67
2017-12-21T07:08:36.125Z,14.90
2017-12-21T07:11:03.660Z,14.60
2017-12-21T07:13:31.172Z,12.85
2017-12-21T07:15:58.718Z,15.20
2017-12-21T07:18:26.224Z,14.15
2017-12-21T07:20:53.729Z,15.25
2017-12-21T07:23:21.397Z,14.18
2017-12-21T07:25:48.905Z,14.75
2017-12-21T07:28:16.422Z,14.48
2017-12-21T07:30:44.380Z,13.70
2017-12-21T07:33:11.890Z,13.77
2017-12-21T07:35:39.411Z,11.63
2017-12-21T07:38:07.162Z,14.05
2017-12-21T07:40:34.665Z,14.32
2017-12-21T07:43:02.185Z,12.68
2017-12-21T07:45:29.754Z,12.80
2017-12-21T07:47:57.280Z,12.50
2017-12-21T07:50:24.785Z,12.18
2017-12-21T07:52:52.323Z,13.00
2017-12-21T07:55:19.871Z,13.10
2017-12-21T07:57:47.377Z,12.00
2017-12-21T08:00:15.296Z,12.65
2017-12-21T08:02:42.857Z,12.93
2017-12-21T08:05:10.415Z,11.95
2017-12-21T08:07:38.280Z,11.25
2017-12-21T08:10:06.761Z,10.60
2017-12-21T08:12:34.267Z,7.93
2017-12-21T08:15:01.960Z,10.27
2017-12-21T08:17:29.848Z,9.80
2017-12-21T08:19:57.358Z,11.02
2017-12-21T08:22:25.087Z,9.90
2017-12-21T08:24:52.627Z,8.40
2017-12-21T08:27:21.209Z,9.38
2017-12-21T08:29:48.961Z,9.13
2017-12-21T08:32:16.469Z,8.90
2017-12-21T08:34:44.005Z,9.25
2017-12-21T08:37:11.655Z,9.43
2017-12-21T08:39:39.161Z,8.50
2017-12-21T08:42:06.657Z,9.18
2017-12-21T08:44:34.213Z,10.25
2017-12-21T08:47:01.722Z,9.82
2017-12-21T08:49:29.234Z,9.88
2017-12-21T08:51:56.902Z,10.57
2017-12-21T08:54:24.426Z,8.95
2017-12-21T08:56:51.933Z,7.80
2017-12-21T08:59:19.681Z,7.97
2017-12-21T09:01:47.186Z,8.50
2017-12-21T09:04:14.697Z,8.15
2017-12-21T09:06:42.283Z,8.18
2017-12-21T09:09:09.820Z,9.43
2017-12-21T09:11:37.330Z,10.35
2017-12-21T09:14:04.882Z,9.02
2017-12-21T09:16:32.392Z,8.45
2017-12-21T09:18:59.889Z,9.07
2017-12-21T09:21:27.453Z,8.10
2017-12-21T09:23:54.971Z,8.30
2017-12-21T09:26:22.528Z,8.15
2017-12-21T09:28:50.076Z,8.40
2017-12-21T09:31:17.582Z,7.70
2017-12-21T09:33:45.086Z,8.05
2017-12-21T09:36:12.649Z,6.85
2017-12-21T09:38:40.150Z,7.22
2017-12-21T09:41:07.659Z,8.30
2017-12-21T09:43:35.234Z,7.00
2017-12-21T09:46:02.733Z,7.80
2017-12-21T09:48:30.250Z,6.60
2017-12-21T09:50:58.116Z,7.95
2017-12-21T09:53:25.730Z,5.20
2017-12-21T09:55:54.364Z,6.53
2017-12-21T09:58:22.331Z,8.65
2017-12-21T10:00:49.833Z,6.65
2017-12-21T10:03:17.756Z,7.30
2017-12-21T10:05:45.518Z,6.95
2017-12-21T10:08:14.615Z,5.82
2017-12-21T10:10:42.173Z,7.12
2017-12-21T10:13:10.650Z,7.32
2017-12-21T10:15:38.145Z,5.78
2017-12-21T10:18:06.509Z,5.78
2017-12-21T10:20:34.459Z,5.72
2017-12-21T10:23:02.425Z,6.80
2017-12-21T10:25:29.929Z,7.35
2017-12-21T10:27:57.990Z,6.75
2017-12-21T10:30:25.525Z,6.80
2017-12-21T10:32:54.610Z,6.50
2017-12-21T10:35:22.372Z,6.68
2017-12-21T10:37:50.668Z,5.68
2017-12-21T10:40:18.185Z,6.95
2017-12-21T10:42:45.869Z,6.93
2017-12-21T10:45:13.369Z,7.12
2017-12-21T10:47:40.869Z,6.00
2017-12-21T10:50:08.549Z,6.75
2017-12-21T10:52:36.105Z,6.65
2017-12-21T10:55:03.666Z,6.60
2017-12-21T10:57:31.394Z,6.45
2017-12-21T10:59:58.889Z,5.43
2017-12-21T11:02:26.400Z,5.93
2017-12-21T11:04:54.926Z,6.53
2017-12-21T11:07:22.484Z,5.93
2017-12-21T11:09:49.982Z,7.25
2017-12-21T11:12:17.706Z,5.65
2017-12-21T11:14:45.205Z,5.75
2017-12-21T11:17:12.700Z,5.35
2017-12-21T11:19:40.263Z,6.32
2017-12-21T11:22:07.765Z,5.28
2017-12-21T11:24:36.216Z,5.50
2017-12-21T11:27:03.776Z,4.93
2017-12-21T11:29:32.249Z,5.60
2017-12-21T11:32:00.430Z,5.15
2017-12-21T11:34:28.100Z,4.60
2017-12-21T11:36:55.669Z,5.95
2017-12-21T11:39:23.165Z,5.25
2017-12-21T11:41:51.288Z,5.72
2017-12-21T11:44:18.827Z,6.07
2017-12-21T11:46:46.809Z,6.57
2017-12-21T11:49:15.375Z,6.15
2017-12-21T11:51:43.904Z,6.35
2017-12-21T11:54:11.424Z,5.20
2017-12-21T11:56:39.002Z,6.00
2017-12-21T11:59:06.496Z,7.00
2017-12-21T12:01:34.905Z,5.22
2017-12-21T12:04:03.308Z,5.30
2017-12-21T12:06:31.718Z,6.12
2017-12-21T12:08:59.226Z,7.03
2017-12-21T12:11:28.761Z,6.57
2017-12-21T12:13:56.720Z,6.32
2017-12-21T12:16:25.057Z,6.35
2017-12-21T12:18:54.395Z,7.35
2017-12-21T12:21:21.930Z,8.23
2017-12-21T12:23:49.634Z,7.43
2017-12-21T12:26:17.550Z,7.82
2017-12-21T12:28:46.007Z,6.22
2017-12-21T12:31:13.550Z,5.95
2017-12-21T12:33:42.106Z,5.60
2017-12-21T12:36:09.724Z,6.97
2017-12-21T12:38:38.436Z,6.15
2017-12-21T12:41:06.000Z,6.40
2017-12-21T12:43:34.394Z,6.28
2017-12-21T12:46:02.103Z,6.37
2017-12-21T12:48:29.925Z,5.30
2017-12-21T12:50:57.429Z,5.62
2017-12-21T12:53:25.036Z,5.20
2017-12-21T12:55:52.634Z,4.62
2017-12-21T12:58:21.179Z,5.10
2017-12-21T13:00:48.743Z,5.00
2017-12-21T13:03:16.604Z,4.53
2017-12-21T13:05:44.164Z,5.12
2017-12-21T13:08:11.927Z,4.75
2017-12-21T13:10:39.769Z,5.30
2017-12-21T13:13:07.764Z,5.68
2017-12-21T13:15:35.494Z,5.00
2017-12-21T13:18:03.699Z,6.45
2017-12-21T13:20:31.260Z,5.90
2017-12-21T13:22:58.917Z,6.20
2017-12-21T13:25:26.916Z,6.35
2017-12-21T13:27:54.653Z,6.10
2017-12-21T13:30:22.215Z,6.32
2017-12-21T13:32:50.082Z,6.62
2017-12-21T13:35:17.639Z,7.75
2017-12-21T13:37:45.183Z,5.53
2017-12-21T13:40:13.041Z,6.10
2017-12-21T13:42:40.623Z,6.03
2017-12-21T13:45:08.591Z,3.30
2017-12-21T13:47:36.222Z,3.42
2017-12-21T13:50:04.820Z,1.95
2017-12-21T13:52:32.395Z,1.80
2017-12-21T13:55:00.987Z,2.22
2017-12-21T13:57:28.844Z,1.75
2017-12-21T13:59:56.570Z,1.35
2017-12-21T14:02:24.478Z,1.85
2017-12-21T14:04:52.240Z,2.42
2017-12-21T14:07:19.746Z,1.60
2017-12-21T14:09:48.557Z,1.70
2017-12-21T14:12:16.058Z,1.70
2017-12-21T14:14:44.665Z,1.67
2017-12-21T14:17:12.293Z,1.40
2017-12-21T14:19:40.052Z,1.45
2017-12-21T14:22:07.816Z,1.37
2017-12-21T14:24:35.887Z,1.40
2017-12-21T14:27:03.399Z,1.30
2017-12-21T14:29:31.234Z,2.25
2017-12-21T14:31:59.180Z,2.20
2017-12-21T14:34:27.000Z,1.77
2017-12-21T14:36:55.525Z,1.05
2017-12-21T14:39:24.415Z,1.98
2017-12-21T14:41:52.590Z,1.30
2017-12-21T14:44:20.369Z,1.87
2017-12-21T14:46:48.937Z,1.75
2017-12-21T14:49:17.578Z,2.08
2017-12-21T14:51:45.343Z,2.20
2017-12-21T14:54:13.269Z,1.10
2017-12-21T14:56:41.888Z,1.73
2017-12-21T14:59:10.015Z,1.45
2017-12-21T15:01:37.847Z,1.05
2017-12-21T15:04:05.377Z,1.20
2017-12-21T15:06:33.608Z,1.52
2017-12-21T15:09:01.603Z,1.92
2017-12-21T15:11:29.855Z,1.70
2017-12-21T15:13:58.949Z,1.90
2017-12-21T15:16:26.768Z,2.40
2017-12-21T15:18:54.579Z,2.28
2017-12-21T15:21:22.125Z,1.90
2017-12-21T15:23:51.011Z,2.47
2017-12-21T15:26:18.552Z,2.60
2017-12-21T15:28:46.270Z,2.95
2017-12-21T15:31:15.110Z,2.70
2017-12-21T15:33:43.044Z,1.85
2017-12-21T15:36:10.768Z,2.00
2017-12-21T15:38:39.557Z,1.37
2017-12-21T15:41:08.345Z,1.20
2017-12-21T15:43:36.419Z,1.50
2017-12-21T15:46:04.286Z,1.58
2017-12-21T15:48:31.893Z,2.42
2017-12-21T15:51:00.648Z,7.00
2017-12-21T15:53:28.606Z,1.77
2017-12-21T15:55:57.288Z,1.70
2017-12-21T15:58:25.050Z,2.00
2017-12-21T16:00:53.951Z,2.60
2017-12-21T16:03:21.633Z,1.87
2017-12-21T16:05:49.532Z,2.85
2017-12-21T16:08:17.231Z,3.03
2017-12-21T16:10:45.404Z,2.65
2017-12-21T16:13:13.168Z,1.65
2017-12-21T16:15:41.973Z,1.73
2017-12-21T16:18:10.131Z,1.50
2017-12-21T16:20:39.035Z,2.00
2017-12-21T16:23:06.803Z,2.50
2017-12-21T16:25:34.445Z,2.08
2017-12-21T16:28:02.097Z,2.90
2017-12-21T16:30:29.673Z,1.92
2017-12-21T16:32:57.949Z,2.20
2017-12-21T16:35:25.605Z,2.62
2017-12-21T16:37:53.794Z,1.90
2017-12-21T16:40:21.611Z,2.70
2017-12-21T16:42:49.408Z,1.62
2017-12-21T16:45:18.546Z,2.22
2017-12-21T16:47:46.267Z,1.75
2017-12-21T16:50:14.906Z,2.25
2017-12-21T16:52:42.702Z,3.33
2017-12-21T16:55:10.553Z,2.35
2017-12-21T16:57:38.962Z,2.25
2017-12-21T17:00:06.816Z,2.40
2017-12-21T17:02:34.389Z,1.73
2017-12-21T17:05:02.867Z,1.67
2017-12-21T17:07:31.383Z,2.60
2017-12-21T17:10:01.099Z,2.95
2017-12-21T17:12:28.637Z,3.10
2017-12-21T17:14:56.995Z,3.08
2017-12-21T17:17:24.579Z,3.28
2017-12-21T17:19:52.162Z,3.12
2017-12-21T17:22:20.185Z,2.28
2017-12-21T17:24:47.735Z,2.75
2017-12-21T17:27:16.021Z,2.17
2017-12-21T17:29:44.837Z,4.07
2017-12-21T17:32:13.502Z,4.55
2017-12-21T17:34:41.033Z,4.40
2017-12-21T17:37:09.130Z,3.65
2017-12-21T17:39:36.701Z,4.07
2017-12-21T17:42:04.344Z,4.32
2017-12-21T17:44:32.414Z,3.15
2017-12-21T17:47:00.076Z,4.30
2017-12-21T17:49:27.642Z,4.10
2017-12-21T17:51:55.397Z,3.17
2017-12-21T17:54:23.167Z,2.72
2017-12-21T17:56:50.783Z,3.80
2017-12-21T17:59:18.802Z,2.70
2017-12-21T18:01:46.298Z,2.87
2017-12-21T18:04:14.326Z,2.53
2017-12-21T18:06:42.260Z,2.40
2017-12-21T18:09:10.465Z,2.50
2017-12-21T18:11:38.025Z,2.00
2017-12-21T18:14:05.777Z,1.50
2017-12-21T18:16:33.540Z,1.83
2017-12-21T18:19:01.204Z,1.65
2017-12-21T18:21:29.507Z,2.20
2017-12-21T18:23:57.049Z,2.20
2017-12-21T18:26:24.608Z,3.08
2017-12-21T18:28:52.517Z,8.35
2017-12-21T18:31:20.052Z,3.55
2017-12-21T18:33:48.143Z,11.73
2017-12-21T18:36:16.893Z,3.40
2017-12-21T18:38:44.760Z,5.05
2017-12-21T18:41:12.300Z,3.10
2017-12-21T18:43:40.172Z,3.12
2017-12-21T18:46:07.674Z,2.22
2017-12-21T18:48:35.610Z,2.90
2017-12-21T18:51:03.476Z,4.10
2017-12-21T18:53:31.044Z,3.97
2017-12-21T18:55:58.568Z,3.00
2017-12-21T18:58:26.329Z,2.65
2017-12-21T19:00:53.853Z,2.70
2017-12-21T19:03:21.682Z,2.97
2017-12-21T19:05:49.543Z,2.25
2017-12-21T19:08:17.106Z,2.10
2017-12-21T19:10:45.076Z,2.50
2017-12-21T19:13:12.839Z,2.70
2017-12-21T19:15:40.443Z,2.42
2017-12-21T19:18:08.113Z,2.90
2017-12-21T19:20:35.723Z,3.40
2017-12-21T19:23:03.454Z,3.53
2017-12-21T19:25:30.978Z,4.32
2017-12-21T19:27:59.118Z,3.05
2017-12-21T19:30:26.985Z,3.10
2017-12-21T19:32:54.653Z,3.05
2017-12-21T19:35:22.716Z,2.80
2017-12-21T19:37:50.479Z,2.70
2017-12-21T19:40:19.072Z,2.60
2017-12-21T19:42:47.087Z,2.87
2017-12-21T19:45:15.001Z,7.57
2017-12-21T19:47:42.869Z,2.83
2017-12-21T19:50:10.627Z,2.20
2017-12-21T19:52:39.741Z,2.15
2017-12-21T19:55:07.343Z,4.45
2017-12-21T19:57:35.441Z,4.22
2017-12-21T20:00:04.144Z,4.35
2017-12-21T20:02:31.910Z,3.40
2017-12-21T20:04:59.576Z,4.03
2017-12-21T20:07:27.334Z,3.35
2017-12-21T20:09:55.354Z,3.58
2017-12-21T20:12:22.983Z,2.28
2017-12-21T20:14:50.626Z,3.20
2017-12-21T20:17:18.492Z,3.08
2017-12-21T20:19:46.322Z,3.40
2017-12-21T20:22:13.870Z,3.28
2017-12-21T20:24:41.598Z,3.70
2017-12-21T20:27:09.649Z,3.75
2017-12-21T20:29:37.230Z,3.92
2017-12-21T20:32:05.075Z,3.95
2017-12-21T20:34:33.267Z,5.40
2017-12-21T20:37:00.932Z,4.80
2017-12-21T20:39:28.624Z,4.25
2017-12-21T20:41:56.542Z,5.10
2017-12-21T20:44:24.324Z,4.80
2017-12-21T20:46:52.683Z,4.50
2017-12-21T20:49:20.447Z,5.97
2017-12-21T20:51:48.426Z,4.90
2017-12-21T20:54:16.521Z,6.20
2017-12-21T20:56:44.347Z,4.93
2017-12-21T20:59:12.138Z,5.75
2017-12-21T21:01:39.883Z,4.85
2017-12-21T21:04:07.763Z,5.90
2017-12-21T21:06:35.317Z,6.32
2017-12-21T21:09:03.175Z,6.07
2017-12-21T21:11:30.978Z,5.45
2017-12-21T21:13:58.701Z,5.60
2017-12-21T21:16:26.323Z,5.45
2017-12-21T21:18:55.699Z,5.75
2017-12-21T21:21:26.823Z,5.45
2017-12-21T21:23:57.671Z,6.20
2017-12-21T21:26:25.406Z,5.55
2017-12-21T21:28:53.377Z,5.57
2017-12-21T21:31:21.551Z,5.57
2017-12-21T21:33:50.131Z,5.20
2017-12-21T21:36:18.822Z,5.78
2017-12-21T21:38:46.705Z,6.10
2017-12-21T21:41:14.256Z,5.80
2017-12-21T21:43:42.127Z,5.37
2017-12-21T21:46:09.770Z,5.30
2017-12-21T21:48:39.099Z,4.90
2017-12-21T21:51:06.960Z,4.68
2017-12-21T21:53:34.907Z,4.53
2017-12-21T21:56:02.451Z,4.68
2017-12-21T21:58:29.969Z,5.55
2017-12-21T22:00:57.890Z,4.87
2017-12-21T22:03:25.517Z,4.40
2017-12-21T22:05:53.108Z,5.12
2017-12-21T22:08:20.788Z,5.85
2017-12-21T22:10:48.338Z,4.93
2017-12-21T22:13:15.929Z,5.00
2017-12-21T22:15:43.652Z,5.10
2017-12-21T22:18:12.546Z,4.82
2017-12-21T22:20:40.411Z,6.18
2017-12-21T22:23:08.203Z,6.37
2017-12-21T22:25:35.940Z,5.35
2017-12-21T22:28:03.481Z,5.53
2017-12-21T22:30:31.393Z,6.20
2017-12-21T22:32:58.924Z,6.95
2017-12-21T22:35:26.563Z,5.97
2017-12-21T22:37:54.581Z,6.85
2017-12-21T22:40:22.360Z,6.00
2017-12-21T22:42:49.877Z,7.30
2017-12-21T22:45:17.620Z,6.70
2017-12-21T22:47:45.181Z,7.28
2017-12-21T22:50:12.685Z,7.47
2017-12-21T22:52:40.225Z,7.62
2017-12-21T22:55:07.726Z,7.32
2017-12-21T22:57:35.567Z,7.32
2017-12-21T23:00:04.026Z,8.30
2017-12-21T23:02:31.530Z,7.20
2017-12-21T23:04:59.046Z,6.62
2017-12-21T23:07:27.027Z,6.35
2017-12-21T23:09:54.669Z,6.32
2017-12-21T23:12:22.175Z,5.15
2017-12-21T23:14:49.707Z,4.80
2017-12-21T23:17:17.242Z,5.37
2017-12-21T23:19:44.749Z,5.65
2017-12-21T23:22:12.301Z,5.30
2017-12-21T23:24:39.816Z,3.60
2017-12-21T23:27:07.376Z,4.70
2017-12-21T23:29:34.951Z,4.40
2017-12-21T23:32:02.493Z,4.80
2017-12-21T23:34:29.994Z,4.97
2017-12-21T23:36:57.522Z,4.40
2017-12-21T23:39:25.478Z,4.30
2017-12-21T23:41:52.978Z,4.80
2017-12-21T23:44:20.675Z,4.55
2017-12-21T23:46:48.209Z,4.65
2017-12-21T23:49:15.727Z,4.35
2017-12-21T23:51:43.478Z,4.60
2017-12-21T23:54:10.978Z,4.72
2017-12-21T23:56:38.494Z,4.40
2017-12-21T23:59:06.240Z,3.70
